NCAR-RAP Real-Time Weather Data

Output produced by METARs form (22 June 2018  20:48 UTC)
found at http://weather.rap.ucar.edu/surface/
 
Conditions at: KFMY observed 22 June 2018  19:53 UTC
Temperature: 33.3°C (92°F)
Dewpoint: 22.8°C (73°F) [RH = 54%]
Pressure (altimeter): 29.96 inches Hg (1014.6 mb)
[Sea-level pressure: 1014.6 mb]
Winds: from the WNW (290 degrees) at 13 MPH (11 knots; 5.7 m/s)
Visibility: 10 or more miles (16+ km)
Ceiling: at least 12,000 feet AGL
Clouds: few clouds at 4300 feet AGL
Present Weather:
SOME DATA ABOVE MAY BE INACCURATE!!!
"$" is an indication the sensor requires maintenance
KFMY 221953Z 29011KT 10SM FEW043 33/23 A2996 RMK AO2 SLP146 T03330228 $

Conditions at: KFMY observed 22 June 2018  18:53 UTC
Temperature: 32.2°C (90°F)
Dewpoint: 23.3°C (74°F) [RH = 59%]
Pressure (altimeter): 29.97 inches Hg (1015.0 mb)
[Sea-level pressure: 1015.0 mb]
Winds: from the W (270 degrees) at 16 MPH (14 knots; 7.3 m/s)
Visibility: 10 or more miles (16+ km)
Ceiling: at least 12,000 feet AGL
Clouds: scattered clouds at 3700 feet AGL
Present Weather:
SOME DATA ABOVE MAY BE INACCURATE!!!
"$" is an indication the sensor requires maintenance
KFMY 221853Z 27014KT 10SM SCT037 32/23 A2997 RMK AO2 SLP150 T03220233 $

Conditions at: KFMY observed 22 June 2018  17:53 UTC
Temperature: 33.9°C (93°F)
Dewpoint: 22.8°C (73°F) [RH = 52%]
Pressure (altimeter): 29.98 inches Hg (1015.3 mb)
[Sea-level pressure: 1015.5 mb]
Winds: from the WNW (290 degrees) at 10 MPH (9 knots; 4.7 m/s)
Visibility: 10 or more miles (16+ km)
Ceiling: at least 12,000 feet AGL
Clouds: scattered clouds at 3700 feet AGL
Present Weather:
SOME DATA ABOVE MAY BE INACCURATE!!!
"$" is an indication the sensor requires maintenance
KFMY 221753Z 29009KT 250V340 10SM SCT037 34/23 A2998 RMK AO2 SLP155 T03390228 10339 20283 58008 $

Conditions at: KFMY observed 22 June 2018  16:53 UTC
Temperature: 32.8°C (91°F)
Dewpoint: 22.2°C (72°F) [RH = 54%]
Pressure (altimeter): 30.00 inches Hg (1016.0 mb)
[Sea-level pressure: 1016.1 mb]
Winds: from the W (260 degrees) at 10 MPH (9 knots; 4.7 m/s)
Visibility: 10 or more miles (16+ km)
Ceiling: at least 12,000 feet AGL
Clouds: sky clear below 12,000 feet AGL
Present Weather:
SOME DATA ABOVE MAY BE INACCURATE!!!
"$" is an indication the sensor requires maintenance
KFMY 221653Z 26009KT 230V290 10SM CLR 33/22 A3000 RMK AO2 SLP161 T03280222 $

Conditions at: KFMY observed 22 June 2018  15:53 UTC
Temperature: 32.2°C (90°F)
Dewpoint: 22.8°C (73°F) [RH = 58%]
Pressure (altimeter): 30.00 inches Hg (1016.0 mb)
[Sea-level pressure: 1016.1 mb]
Winds: from the W (260 degrees) at 10 MPH (9 knots; 4.7 m/s)
Visibility: 10 or more miles (16+ km)
Ceiling: at least 12,000 feet AGL
Clouds: few clouds at 3700 feet AGL
Present Weather:
SOME DATA ABOVE MAY BE INACCURATE!!!
"$" is an indication the sensor requires maintenance
KFMY 221553Z 26009KT 10SM FEW037 32/23 A3000 RMK AO2 SLP161 T03220228 $

Conditions at: KFMY observed 22 June 2018  14:53 UTC
Temperature: 31.1°C (88°F)
Dewpoint: 23.3°C (74°F) [RH = 63%]
Pressure (altimeter): 30.01 inches Hg (1016.3 mb)
[Sea-level pressure: 1016.3 mb]
Winds: from the WNW (300 degrees) at 8 MPH (7 knots; 3.6 m/s)
Visibility: 10 or more miles (16+ km)
Ceiling: 4500 feet AGL
Clouds: few clouds at 3400 feet AGL
broken clouds at 4500 feet AGL
broken clouds at 5000 feet AGL
Present Weather:
SOME DATA ABOVE MAY BE INACCURATE!!!
"$" is an indication the sensor requires maintenance
KFMY 221453Z 30007KT 10SM FEW034 BKN045 BKN050 31/23 A3001 RMK AO2 SLP163 T03110233 51008 $

Conditions at: KFMY observed 22 June 2018  13:53 UTC
Temperature: 31.1°C (88°F)
Dewpoint: 23.3°C (74°F) [RH = 63%]
Pressure (altimeter): 30.00 inches Hg (1016.0 mb)
[Sea-level pressure: 1016.1 mb]
Winds: from the NW (310 degrees) at 8 MPH (7 knots; 3.6 m/s)
Visibility: 10 or more miles (16+ km)
Ceiling: at least 12,000 feet AGL
Clouds: few clouds at 2500 feet AGL
Present Weather:
SOME DATA ABOVE MAY BE INACCURATE!!!
"$" is an indication the sensor requires maintenance
KFMY 221353Z 31007KT 10SM FEW025 31/23 A3000 RMK AO2 LTG DSNT SE SLP161 T03110233 $

Conditions at: KFMY observed 22 June 2018  12:53 UTC
Temperature: 28.9°C (84°F)
Dewpoint: 24.4°C (76°F) [RH = 77%]
Pressure (altimeter): 30.00 inches Hg (1016.0 mb)
[Sea-level pressure: 1016.2 mb]
Winds: from the W (280 degrees) at 5 MPH (4 knots; 2.1 m/s)
Visibility: 10 or more miles (16+ km)
Ceiling: at least 12,000 feet AGL
Clouds: few clouds at 2900 feet AGL
scattered clouds at 4200 feet AGL
Present Weather:
SOME DATA ABOVE MAY BE INACCURATE!!!
"$" is an indication the sensor requires maintenance
KFMY 221253Z 28004KT 10SM FEW029 SCT042 29/24 A3000 RMK AO2 SLP162 T02890244 $

Conditions at: KFMY observed 22 June 2018  11:53 UTC
Temperature: 28.3°C (83°F)
Dewpoint: 24.4°C (76°F) [RH = 79%]
Pressure (altimeter): 29.98 inches Hg (1015.3 mb)
[Sea-level pressure: 1015.5 mb]
Winds: from the W (280 degrees) at 6 MPH (5 knots; 2.6 m/s)
Visibility: 10 or more miles (16+ km)
Ceiling: at least 12,000 feet AGL
Clouds: sky clear below 12,000 feet AGL
Present Weather:
SOME DATA ABOVE MAY BE INACCURATE!!!
"$" is an indication the sensor requires maintenance
KFMY 221153Z 28005KT 10SM CLR 28/24 A2998 RMK AO2 SLP155 T02830244 10283 20256 53019 $

Conditions at: KFMY observed 22 June 2018  10:53 UTC
Temperature: 26.1°C (79°F)
Dewpoint: 23.9°C (75°F) [RH = 88%]
Pressure (altimeter): 29.97 inches Hg (1015.0 mb)
[Sea-level pressure: 1014.9 mb]
Winds: calm
Visibility: 10 or more miles (16+ km)
Ceiling: at least 12,000 feet AGL
Clouds: sky clear below 12,000 feet AGL
Present Weather:
SOME DATA ABOVE MAY BE INACCURATE!!!
"$" is an indication the sensor requires maintenance
KFMY 221053Z 00000KT 10SM CLR 26/24 A2997 RMK AO2 SLP149 T02610239 $

Conditions at: KFMY observed 22 June 2018  09:53 UTC
Temperature: 26.1°C (79°F)
Dewpoint: 23.3°C (74°F) [RH = 85%]
Pressure (altimeter): 29.94 inches Hg (1014.0 mb)
[Sea-level pressure: 1014.0 mb]
Winds: calm
Visibility: missing
Ceiling: at least 12,000 feet AGL
Clouds: sky clear below 12,000 feet AGL
Present Weather:
SOME DATA ABOVE MAY BE INACCURATE!!!
"$" is an indication the sensor requires maintenance
KFMY 220953Z AUTO 00000KT CLR 26/23 A2994 RMK AO2 SLP140 T02610233 $

Conditions at: KFMY observed 22 June 2018  08:53 UTC
Temperature: 26.7°C (80°F)
Dewpoint: 23.3°C (74°F) [RH = 82%]
Pressure (altimeter): 29.93 inches Hg (1013.6 mb)
[Sea-level pressure: 1013.6 mb]
Winds: calm
Visibility: missing
Ceiling: at least 12,000 feet AGL
Clouds: sky clear below 12,000 feet AGL
Present Weather:
SOME DATA ABOVE MAY BE INACCURATE!!!
"$" is an indication the sensor requires maintenance
KFMY 220853Z AUTO 00000KT CLR 27/23 A2993 RMK AO2 SLP136 T02670233 56011 $

Conditions at: KFMY observed 22 June 2018  07:53 UTC
Temperature: 26.7°C (80°F)
Dewpoint: 23.3°C (74°F) [RH = 82%]
Pressure (altimeter): 29.93 inches Hg (1013.6 mb)
[Sea-level pressure: 1013.7 mb]
Winds: from the SSW (200 degrees) at 3 MPH (3 knots; 1.6 m/s)
Visibility: missing
Ceiling: at least 12,000 feet AGL
Clouds: sky clear below 12,000 feet AGL
Present Weather:
SOME DATA ABOVE MAY BE INACCURATE!!!
"$" is an indication the sensor requires maintenance
KFMY 220753Z AUTO 20003KT CLR 27/23 A2993 RMK AO2 SLP137 T02670233 $

Conditions at: KFMY observed 22 June 2018  06:53 UTC
Temperature: 26.7°C (80°F)
Dewpoint: 22.8°C (73°F) [RH = 79%]
Pressure (altimeter): 29.94 inches Hg (1014.0 mb)
[Sea-level pressure: 1014.1 mb]
Winds: from the SW (220 degrees) at 7 MPH (6 knots; 3.1 m/s)
Visibility: missing
Ceiling: at least 12,000 feet AGL
Clouds: sky clear below 12,000 feet AGL
Present Weather:
SOME DATA ABOVE MAY BE INACCURATE!!!
"$" is an indication the sensor requires maintenance
KFMY 220653Z AUTO 22006KT CLR 27/23 A2994 RMK AO2 SLP141 T02670228 $

Conditions at: KFMY observed 22 June 2018  06:30 UTC
Temperature: 27.8°C (82°F)
Dewpoint: 22.8°C (73°F) [RH = 74%]
Pressure (altimeter): 29.95 inches Hg (1014.3 mb)
Winds: from the SW (230 degrees) at 9 MPH (8 knots; 4.2 m/s)
Visibility: missing
Ceiling: at least 12,000 feet AGL
Clouds: sky clear below 12,000 feet AGL
Present Weather:
SOME DATA ABOVE MAY BE INACCURATE!!!
"$" is an indication the sensor requires maintenance
KFMY 220630Z AUTO 23008KT CLR 28/23 A2995 RMK AO2 T02780228 $

Conditions at: KFMY observed 22 June 2018  06:15 UTC
Temperature: 28.3°C (83°F)
Dewpoint: 23.9°C (75°F) [RH = 77%]
Pressure (altimeter): 29.96 inches Hg (1014.6 mb)
Winds: from the SW (230 degrees) at 5 MPH (4 knots; 2.1 m/s)
Visibility: missing
Ceiling: at least 12,000 feet AGL
Clouds: sky clear below 12,000 feet AGL
Present Weather: VCTS  (thunderstorm in vicinity)
SOME DATA ABOVE MAY BE INACCURATE!!!
"$" is an indication the sensor requires maintenance
KFMY 220615Z AUTO 23004KT VCTS CLR 28/24 A2996 RMK AO2 T02830239 $

Conditions at: KFMY observed 22 June 2018  05:53 UTC
Temperature: 28.3°C (83°F)
Dewpoint: 23.9°C (75°F) [RH = 77%]
Pressure (altimeter): 29.96 inches Hg (1014.6 mb)
[Sea-level pressure: 1014.7 mb]
Winds: from the W (280 degrees) at 3 MPH (3 knots; 1.6 m/s)
Visibility: missing
Ceiling: at least 12,000 feet AGL
Clouds: sky clear below 12,000 feet AGL
Present Weather:
SOME DATA ABOVE MAY BE INACCURATE!!!
"$" is an indication the sensor requires maintenance
KFMY 220553Z AUTO 28003KT CLR 28/24 A2996 RMK AO2 LTG DSNT S SLP147 T02830239 10300 20283 58002 $

Conditions at: KFMY observed 22 June 2018  04:53 UTC
Temperature: 28.9°C (84°F)
Dewpoint: 23.9°C (75°F) [RH = 74%]
Pressure (altimeter): 29.98 inches Hg (1015.3 mb)
[Sea-level pressure: 1015.3 mb]
Winds: from the WNW (290 degrees) at 5 MPH (4 knots; 2.1 m/s)
Visibility: missing
Ceiling: at least 12,000 feet AGL
Clouds: sky clear below 12,000 feet AGL
Present Weather:
SOME DATA ABOVE MAY BE INACCURATE!!!
"$" is an indication the sensor requires maintenance
KFMY 220453Z AUTO 29004KT CLR 29/24 A2998 RMK AO2 LTG DSNT S SLP153 T02890239 403390261 $

Conditions at: KFMY observed 22 June 2018  03:53 UTC
Temperature: 28.9°C (84°F)
Dewpoint: 23.9°C (75°F) [RH = 74%]
Pressure (altimeter): 29.98 inches Hg (1015.3 mb)
[Sea-level pressure: 1015.4 mb]
Winds: from the WNW (300 degrees) at 3 MPH (3 knots; 1.6 m/s)
Visibility: missing
Ceiling: at least 12,000 feet AGL
Clouds: sky clear below 12,000 feet AGL
Present Weather:
SOME DATA ABOVE MAY BE INACCURATE!!!
"$" is an indication the sensor requires maintenance
KFMY 220353Z AUTO 30003KT CLR 29/24 A2998 RMK AO2 SLP154 T02890239 $

Conditions at: KFMY observed 22 June 2018  03:36 UTC
Temperature: 28.9°C (84°F)
Dewpoint: 23.9°C (75°F) [RH = 74%]
Pressure (altimeter): 29.98 inches Hg (1015.3 mb)
Winds: from the W (280 degrees) at 3 MPH (3 knots; 1.6 m/s)
Visibility: missing
Ceiling: at least 12,000 feet AGL
Clouds: scattered clouds at 2900 feet AGL
Present Weather:
SOME DATA ABOVE MAY BE INACCURATE!!!
"$" is an indication the sensor requires maintenance
KFMY 220336Z AUTO 28003KT SCT029 29/24 A2998 RMK AO2 T02890239 $

Conditions at: KFMY observed 22 June 2018  03:19 UTC
Temperature: 28.9°C (84°F)
Dewpoint: 23.9°C (75°F) [RH = 74%]
Pressure (altimeter): 29.98 inches Hg (1015.3 mb)
Winds: from the W (280 degrees) at 5 MPH (4 knots; 2.1 m/s)
Visibility: missing
Ceiling: 2900 feet AGL
Clouds: broken clouds at 2900 feet AGL
Present Weather:
SOME DATA ABOVE MAY BE INACCURATE!!!
"$" is an indication the sensor requires maintenance
KFMY 220319Z AUTO 28004KT BKN029 29/24 A2998 RMK AO2 T02890239 $

Conditions at: KFMY observed 22 June 2018  02:53 UTC
Temperature: 28.9°C (84°F)
Dewpoint: 23.9°C (75°F) [RH = 74%]
Pressure (altimeter): 29.97 inches Hg (1015.0 mb)
[Sea-level pressure: 1015.0 mb]
Winds: from the W (270 degrees) at 6 MPH (5 knots; 2.6 m/s)
Visibility: missing
Ceiling: at least 12,000 feet AGL
Clouds: sky clear below 12,000 feet AGL
Present Weather:
SOME DATA ABOVE MAY BE INACCURATE!!!
"$" is an indication the sensor requires maintenance
KFMY 220253Z AUTO 27005KT CLR 29/24 A2997 RMK AO2 SLP150 T02890239 53009 $

Conditions at: KFMY observed 22 June 2018  01:53 UTC
Temperature: 28.9°C (84°F)
Dewpoint: 24.4°C (76°F) [RH = 77%]
Pressure (altimeter): 29.96 inches Hg (1014.6 mb)
[Sea-level pressure: 1014.5 mb]
Winds: from the W (280 degrees) at 5 MPH (4 knots; 2.1 m/s)
Visibility: 10 or more miles (16+ km)
Ceiling: at least 12,000 feet AGL
Clouds: sky clear below 12,000 feet AGL
Present Weather:
SOME DATA ABOVE MAY BE INACCURATE!!!
"$" is an indication the sensor requires maintenance
KFMY 220153Z AUTO 28004KT 10SM CLR 29/24 A2996 RMK AO2 SLP145 T02890244 $

Conditions at: KFMY observed 22 June 2018  00:53 UTC
Temperature: 29.4°C (85°F)
Dewpoint: 23.9°C (75°F) [RH = 72%]
Pressure (altimeter): 29.94 inches Hg (1014.0 mb)
[Sea-level pressure: 1014.2 mb]
Winds: from the WNW (290 degrees) at 6 MPH (5 knots; 2.6 m/s)
Visibility: 10 or more miles (16+ km)
Ceiling: at least 12,000 feet AGL
Clouds: sky clear below 12,000 feet AGL
Present Weather:
SOME DATA ABOVE MAY BE INACCURATE!!!
"$" is an indication the sensor requires maintenance
KFMY 220053Z 29005KT 10SM CLR 29/24 A2994 RMK AO2 SLP142 T02940239 $

Conditions at: KFMY observed 21 June 2018  23:53 UTC
Temperature: 30.0°C (86°F)
Dewpoint: 23.3°C (74°F) [RH = 67%]
Pressure (altimeter): 29.94 inches Hg (1014.0 mb)
[Sea-level pressure: 1014.0 mb]
Winds: from the WNW (290 degrees) at 7 MPH (6 knots; 3.1 m/s)
Visibility: 10 or more miles (16+ km)
Ceiling: at least 12,000 feet AGL
Clouds: few clouds at 2800 feet AGL
Present Weather:
SOME DATA ABOVE MAY BE INACCURATE!!!
"$" is an indication the sensor requires maintenance
KFMY 212353Z 29006KT 10SM FEW028 30/23 A2994 RMK AO2 SLP140 T03000233 10339 20300 53008 $

Conditions at: KFMY observed 21 June 2018  23:43 UTC
Temperature: 30.0°C (86°F)
Dewpoint: 23.3°C (74°F) [RH = 67%]
Pressure (altimeter): 29.94 inches Hg (1014.0 mb)
Winds: from the W (280 degrees) at 7 MPH (6 knots; 3.1 m/s)
Visibility: 10 or more miles (16+ km)
Ceiling: at least 12,000 feet AGL
Clouds: few clouds at 200 feet AGL
Present Weather:
SOME DATA ABOVE MAY BE INACCURATE!!!
"$" is an indication the sensor requires maintenance
KFMY 212343Z 28006KT 10SM FEW002 30/23 A2994 RMK AO2 T03000233 $

Conditions at: KFMY observed 21 June 2018  22:53 UTC
Temperature: 30.0°C (86°F)
Dewpoint: 22.8°C (73°F) [RH = 65%]
Pressure (altimeter): 29.93 inches Hg (1013.6 mb)
[Sea-level pressure: 1013.7 mb]
Winds: from the WNW (290 degrees) at 9 MPH (8 knots; 4.2 m/s)
Visibility: 10 or more miles (16+ km)
Ceiling: at least 12,000 feet AGL
Clouds: sky clear below 12,000 feet AGL
Present Weather:
SOME DATA ABOVE MAY BE INACCURATE!!!
"$" is an indication the sensor requires maintenance
KFMY 212253Z 29008KT 10SM CLR 30/23 A2993 RMK AO2 SLP137 T03000228 $

Conditions at: KFMY observed 21 June 2018  21:53 UTC
Temperature: 30.6°C (87°F)
Dewpoint: 21.7°C (71°F) [RH = 59%]
Pressure (altimeter): 29.91 inches Hg (1013.0 mb)
[Sea-level pressure: 1012.9 mb]
Winds: from the W (270 degrees) at 9 MPH (8 knots; 4.2 m/s)
Visibility: 10 or more miles (16+ km)
Ceiling: at least 12,000 feet AGL
Clouds: sky clear below 12,000 feet AGL
Present Weather:
SOME DATA ABOVE MAY BE INACCURATE!!!
"$" is an indication the sensor requires maintenance
KFMY 212153Z 27008KT 10SM CLR 31/22 A2991 RMK AO2 LTG DSNT NE SLP129 T03060217 $

Conditions at: KFMY observed 21 June 2018  20:53 UTC
Temperature: 30.6°C (87°F)
Dewpoint: 22.8°C (73°F) [RH = 63%]
Pressure (altimeter): 29.92 inches Hg (1013.3 mb)
[Sea-level pressure: 1013.2 mb]
Winds: from the W (260 degrees) at 9 MPH (8 knots; 4.2 m/s)
Visibility: 10 or more miles (16+ km)
Ceiling: at least 12,000 feet AGL
Clouds: sky clear below 12,000 feet AGL
Present Weather:
SOME DATA ABOVE MAY BE INACCURATE!!!
"$" is an indication the sensor requires maintenance
KFMY 212053Z 26008KT 10SM CLR 31/23 A2992 RMK AO2 LTG DSNT N AND NE SLP132 T03060228 56006 $